Time;durP1;ratioP1;P1;durP2;ratioP2;P2;SDS_P1;SDS_P2;PMS_P1;PMS_P2;Temp;Humidity;BMP_temperature;BMP_pressure;BME280_temperature;BME280_humidity;BME280_pressure;Samples;Min_cycle;Max_cycle;Signal;HPM_P1;HPM_P2
2021/08/25 00:00:25;;;;;;;7.80;4.73;;;;;;;12.67;100.00;102215.88;7399094;19;20455;-54
2021/08/25 00:02:54;;;;;;;10.90;4.90;;;;;;;12.67;100.00;102214.16;7382503;19;20407;-55
2021/08/25 00:05:25;;;;;;;10.07;6.13;;;;;;;12.73;100.00;102211.03;7397931;19;20395;-56
2021/08/25 00:07:57;;;;;;;7.93;4.60;;;;;;;12.61;100.00;102202.56;7391205;19;20429;-56
2021/08/25 00:10:26;;;;;;;10.73;5.27;;;;;;;12.56;100.00;102208.38;7398010;19;20402;-52
2021/08/25 00:12:56;;;;;;;8.93;4.67;;;;;;;12.51;100.00;102196.00;7390330;19;20411;-57
2021/08/25 00:15:25;;;;;;;7.83;4.47;;;;;;;12.44;100.00;102197.31;7396725;19;20687;-56
2021/08/25 00:17:55;;;;;;;8.07;5.27;;;;;;;12.59;100.00;102196.41;7365466;19;21040;-55
2021/08/25 00:20:24;;;;;;;13.50;5.60;;;;;;;12.74;100.00;102197.28;7397561;19;20459;-56
2021/08/25 00:22:56;;;;;;;11.77;5.83;;;;;;;12.81;100.00;102190.72;7364665;19;20419;-56
2021/08/25 00:25:27;;;;;;;10.80;6.37;;;;;;;12.77;100.00;102192.25;7397364;19;20389;-55
2021/08/25 00:27:57;;;;;;;9.93;5.67;;;;;;;12.85;100.00;102184.00;7385287;19;20498;-56
2021/08/25 00:30:26;;;;;;;11.07;6.57;;;;;;;12.68;100.00;102186.56;7397740;19;21187;-56
2021/08/25 00:32:56;;;;;;;11.77;5.73;;;;;;;12.23;100.00;102186.63;7365245;19;20490;-56
2021/08/25 00:35:25;;;;;;;7.17;4.80;;;;;;;11.88;100.00;102188.91;7397272;19;20842;-55
2021/08/25 00:37:57;;;;;;;19.07;4.73;;;;;;;11.89;100.00;102191.59;7363418;19;20414;-57
2021/08/25 00:40:27;;;;;;;7.83;4.10;;;;;;;11.73;100.00;102187.19;7397992;19;20392;-57
2021/08/25 00:42:56;;;;;;;9.40;4.47;;;;;;;11.73;100.00;102194.94;7365225;19;20451;-55
2021/08/25 00:45:26;;;;;;;10.13;5.43;;;;;;;11.73;100.00;102194.94;7397166;19;20396;-55
2021/08/25 00:47:55;;;;;;;8.53;4.53;;;;;;;11.72;100.00;102180.25;7362245;19;20431;-56
2021/08/25 00:50:25;;;;;;;8.67;5.40;;;;;;;11.74;100.00;102173.47;7400899;19;20471;-54
2021/08/25 00:52:54;;;;;;;10.67;5.93;;;;;;;11.68;100.00;102180.84;7368292;19;20423;-54
2021/08/25 00:55:27;;;;;;;10.20;6.10;;;;;;;12.04;100.00;102180.38;7397562;19;20388;-56
2021/08/25 00:57:56;;;;;;;11.33;5.60;;;;;;;12.12;100.00;102168.81;7366868;19;20849;-56
2021/08/25 01:00:26;;;;;;;18.57;9.90;;;;;;;11.93;100.00;102168.47;7398356;19;20390;-56
2021/08/25 01:02:59;;;;;;;15.97;10.33;;;;;;;11.81;100.00;102168.66;7390924;19;20428;-54
2021/08/25 01:05:30;;;;;;;15.20;6.20;;;;;;;11.78;100.00;102165.91;7397907;19;20398;-56
2021/08/25 01:08:00;;;;;;;14.07;7.60;;;;;;;11.85;100.00;102163.75;7391727;19;20444;-56
2021/08/25 01:10:34;;;;;;;11.23;6.30;;;;;;;11.99;100.00;102161.97;7398816;19;20459;-56
2021/08/25 01:13:05;;;;;;;9.30;6.20;;;;;;;12.09;100.00;102159.94;7393512;19;20442;-56
2021/08/25 01:15:36;;;;;;;8.33;5.50;;;;;;;12.18;100.00;102147.56;7402041;19;20394;-57
2021/08/25 01:18:07;;;;;;;15.40;7.30;;;;;;;12.08;100.00;102145.22;7374188;19;20427;-55
2021/08/25 01:20:38;;;;;;;16.10;7.97;;;;;;;11.98;100.00;102139.50;7402341;19;20451;-57
2021/08/25 01:23:07;;;;;;;9.93;5.53;;;;;;;11.82;100.00;102137.72;7391515;19;20415;-57
2021/08/25 01:25:39;;;;;;;13.57;5.60;;;;;;;11.72;100.00;102136.28;7397057;19;20921;-56
2021/08/25 01:28:10;;;;;;;10.70;5.80;;;;;;;11.70;100.00;102134.41;7391768;19;20419;-57
2021/08/25 01:30:43;;;;;;;20.30;11.83;;;;;;;11.79;100.00;102131.47;7398271;19;20388;-56
2021/08/25 01:33:20;;;;;;;12.83;7.83;;;;;;;11.97;100.00;102132.56;7391063;19;20878;-56
2021/08/25 01:35:49;;;;;;;24.60;14.53;;;;;;;11.96;100.00;102129.88;7397657;19;20388;-55
2021/08/25 01:38:25;;;;;;;18.80;11.00;;;;;;;12.14;100.00;102125.78;7366686;19;20462;-55
2021/08/25 01:40:54;;;;;;;21.77;13.17;;;;;;;12.25;100.00;102128.97;7397338;19;20455;-55
2021/08/25 01:43:24;;;;;;;16.23;10.23;;;;;;;12.32;100.00;102126.75;7386703;19;20677;-54
2021/08/25 01:45:56;;;;;;;28.97;15.10;;;;;;;12.43;100.00;102115.31;7397298;19;20392;-57
2021/08/25 01:48:26;;;;;;;14.60;8.83;;;;;;;12.11;100.00;102109.22;7390706;19;20462;-55
2021/08/25 01:50:56;;;;;;;18.47;10.87;;;;;;;12.06;100.00;102105.47;7398207;19;20401;-52
2021/08/25 01:53:25;;;;;;;21.33;11.20;;;;;;;12.02;100.00;102105.22;7390986;19;20486;-57
2021/08/25 01:55:55;;;;;;;30.97;18.00;;;;;;;12.06;100.00;102096.00;7397140;19;20672;-56
2021/08/25 01:58:27;;;;;;;13.63;7.70;;;;;;;11.81;100.00;102093.66;7390318;19;20419;-54
2021/08/25 02:00:59;;;;;;;11.60;7.03;;;;;;;11.63;100.00;102091.78;7398945;19;20414;-51
2021/08/25 02:03:29;;;;;;;10.37;5.57;;;;;;;11.56;100.00;102097.41;7362392;19;20415;-57
2021/08/25 02:05:59;;;;;;;24.40;12.77;;;;;;;11.74;100.00;102103.66;7397306;19;20395;-54
2021/08/25 02:08:28;;;;;;;16.50;10.20;;;;;;;11.53;100.00;102092.06;7385775;19;20804;-54
2021/08/25 02:10:58;;;;;;;10.33;6.23;;;;;;;11.41;100.00;102093.09;7400547;19;20746;-54
2021/08/25 02:13:28;;;;;;;18.80;11.50;;;;;;;11.65;100.00;102090.19;7390427;19;20504;-56
2021/08/25 02:16:00;;;;;;;18.10;12.20;;;;;;;11.88;100.00;102088.03;7396674;19;20391;-54
2021/08/25 02:18:29;;;;;;;14.70;8.30;;;;;;;11.66;100.00;102088.47;7389800;19;20422;-56
2021/08/25 02:20:59;;;;;;;13.67;7.40;;;;;;;11.48;100.00;102087.50;7400656;19;20396;-54
2021/08/25 02:23:28;;;;;;;17.27;9.43;;;;;;;11.61;100.00;102090.81;7395056;19;20890;-56
2021/08/25 02:25:58;;;;;;;16.10;9.17;;;;;;;11.47;100.00;102088.31;7407083;19;20392;-56
2021/08/25 02:28:27;;;;;;;11.60;7.10;;;;;;;11.48;100.00;102091.75;7400255;19;20503;-54
2021/08/25 02:30:59;;;;;;;12.73;7.20;;;;;;;11.49;100.00;102091.00;7406944;19;20395;-56
2021/08/25 02:33:29;;;;;;;13.17;6.50;;;;;;;11.42;100.00;102086.22;7400941;19;20447;-54
2021/08/25 02:35:58;;;;;;;18.67;8.40;;;;;;;11.66;100.00;102086.81;7405654;19;20399;-55
2021/08/25 02:38:28;;;;;;;15.13;8.37;;;;;;;11.41;100.00;102087.94;7399766;19;20917;-54
2021/08/25 02:40:57;;;;;;;17.87;7.80;;;;;;;11.29;100.00;102090.66;7407615;19;20417;-54
2021/08/25 02:43:27;;;;;;;11.43;6.83;;;;;;;11.13;100.00;102087.97;7399234;19;20974;-56
2021/08/25 02:45:56;;;;;;;14.07;7.40;;;;;;;10.94;100.00;102090.31;7403272;19;20392;-57
2021/08/25 02:48:28;;;;;;;28.23;10.77;;;;;;;11.12;100.00;102093.94;7396183;19;20415;-50
2021/08/25 02:50:58;;;;;;;22.13;10.80;;;;;;;11.19;100.00;102080.59;7404882;19;20447;-55
2021/08/25 02:53:28;;;;;;;17.70;8.70;;;;;;;11.06;100.00;102079.84;7395616;19;20498;-51
2021/08/25 02:55:57;;;;;;;12.83;7.33;;;;;;;11.21;100.00;102073.81;7402940;19;20684;-55
2021/08/25 02:58:27;;;;;;;22.53;10.60;;;;;;;10.99;100.00;102076.78;7395417;19;20949;-57
2021/08/25 03:00:56;;;;;;;25.90;9.20;;;;;;;11.26;100.00;102072.41;7404347;19;20421;-57
2021/08/25 03:03:29;;;;;;;18.20;10.43;;;;;;;11.54;100.00;102062.81;7389630;19;20411;-55
2021/08/25 03:05:59;;;;;;;15.70;8.40;;;;;;;11.77;100.00;102063.25;7402694;19;20391;-57
2021/08/25 03:08:28;;;;;;;19.23;8.60;;;;;;;11.97;100.00;102060.13;7395980;19;20495;-55
2021/08/25 03:10:58;;;;;;;21.13;9.50;;;;;;;11.56;100.00;102043.13;7402799;19;20447;-55
2021/08/25 03:13:27;;;;;;;14.40;7.77;;;;;;;11.36;100.00;102045.41;7395622;19;20411;-55
2021/08/25 03:15:57;;;;;;;19.40;7.70;;;;;;;11.38;100.00;102051.56;7402175;19;20910;-57
2021/08/25 03:18:29;;;;;;;14.30;8.20;;;;;;;11.53;100.00;102056.75;7395481;19;20407;-56
2021/08/25 03:20:58;;;;;;;16.50;8.07;;;;;;;11.38;100.00;102051.56;7402420;19;20455;-56
2021/08/25 03:23:28;;;;;;;13.13;8.10;;;;;;;11.24;100.00;102043.00;7395378;19;20487;-57
2021/08/25 03:25:57;;;;;;;18.83;8.20;;;;;;;11.23;100.00;102053.25;7401964;19;20384;-56
2021/08/25 03:28:27;;;;;;;16.00;8.87;;;;;;;11.42;100.00;102052.63;7395191;19;20498;-57
2021/08/25 03:30:57;;;;;;;17.60;8.77;;;;;;;11.58;100.00;102046.66;7402129;19;20384;-57
2021/08/25 03:33:29;;;;;;;16.90;9.60;;;;;;;11.57;100.00;102042.31;7395312;19;20747;-54
2021/08/25 03:35:58;;;;;;;27.33;13.23;;;;;;;11.39;100.00;102027.50;7401412;19;20398;-55
2021/08/25 03:38:28;;;;;;;18.93;9.87;;;;;;;11.23;100.00;102033.47;7393047;19;20507;-55
2021/08/25 03:40:57;;;;;;;16.17;8.40;;;;;;;11.30;100.00;102039.88;7401781;19;20390;-57
2021/08/25 03:43:27;;;;;;;25.33;12.70;;;;;;;11.36;100.00;102032.50;7394894;19;20487;-54
2021/08/25 03:45:56;;;;;;;26.97;11.23;;;;;;;11.26;100.00;102020.75;7401397;19;20467;-56
2021/08/25 03:48:28;;;;;;;18.60;11.33;;;;;;;11.32;100.00;102035.69;7394622;19;20693;-56
2021/08/25 03:50:58;;;;;;;23.57;13.87;;;;;;;11.30;100.00;102025.28;7401476;19;20394;-54
2021/08/25 03:53:27;;;;;;;29.60;13.83;;;;;;;11.37;100.00;102034.28;7394312;19;20498;-55
2021/08/25 03:55:57;;;;;;;24.37;15.40;;;;;;;11.37;100.00;102036.00;7400901;19;20725;-56
2021/08/25 03:58:26;;;;;;;30.93;16.40;;;;;;;11.36;100.00;102035.09;7392831;19;20487;-55
2021/08/25 04:00:56;;;;;;;25.77;13.87;;;;;;;11.43;100.00;102044.97;7401036;19;20475;-57
2021/08/25 04:03:25;;;;;;;26.07;15.23;;;;;;;11.46;100.00;102045.19;7397059;19;20419;-53
2021/08/25 04:05:57;;;;;;;27.47;17.27;;;;;;;11.50;100.00;102041.06;7400246;19;20391;-55
2021/08/25 04:08:27;;;;;;;25.63;15.50;;;;;;;11.58;100.00;102052.75;7393652;19;20495;-53
2021/08/25 04:10:56;;;;;;;22.83;15.50;;;;;;;11.63;100.00;102046.97;7400706;19;20459;-56
2021/08/25 04:13:26;;;;;;;24.77;15.00;;;;;;;11.71;100.00;102043.13;7371486;19;20495;-57
2021/08/25 04:15:55;;;;;;;22.97;15.40;;;;;;;11.73;100.00;102039.81;7400243;19;20463;-57
2021/08/25 04:18:25;;;;;;;24.90;14.63;;;;;;;11.64;100.00;102031.50;7373357;19;20440;-57
2021/08/25 04:20:57;;;;;;;26.67;15.70;;;;;;;11.51;100.00;102027.34;7400272;19;20750;-56
2021/08/25 04:23:27;;;;;;;24.20;15.10;;;;;;;11.55;100.00;102026.72;7373949;19;20920;-56
2021/08/25 04:25:56;;;;;;;22.53;15.10;;;;;;;11.48;100.00;102017.72;7401145;19;20472;-57
2021/08/25 04:28:26;;;;;;;26.77;17.03;;;;;;;11.57;100.00;102021.63;7372192;19;20490;-55
2021/08/25 04:30:55;;;;;;;28.23;16.77;;;;;;;11.62;100.00;102020.22;7400020;19;20451;-57
2021/08/25 04:33:25;;;;;;;30.60;17.83;;;;;;;11.60;100.00;102016.66;7371777;19;20419;-57
2021/08/25 04:35:54;;;;;;;30.40;17.03;;;;;;;11.47;100.00;102012.44;7399532;19;20396;-56
2021/08/25 04:38:26;;;;;;;22.90;15.47;;;;;;;11.43;100.00;102011.38;7369273;19;20526;-54
2021/08/25 04:40:58;;;;;;;30.80;14.87;;;;;;;11.49;100.00;102013.44;7399677;19;20392;-56
2021/08/25 04:43:27;;;;;;;24.50;14.97;;;;;;;11.54;100.00;102011.13;7393072;19;20411;-56
2021/08/25 04:45:57;;;;;;;22.33;14.73;;;;;;;11.57;100.00;102000.94;7398026;19;20868;-54
2021/08/25 04:48:27;;;;;;;25.70;14.87;;;;;;;11.55;100.00;102003.47;7369588;19;20396;-57
2021/08/25 04:50:56;;;;;;;25.20;15.60;;;;;;;11.57;100.00;101993.19;7403106;19;20395;-56
2021/08/25 04:53:28;;;;;;;28.10;14.90;;;;;;;11.60;100.00;101991.69;7392552;19;20483;-56
2021/08/25 04:55:58;;;;;;;27.83;15.83;;;;;;;11.62;100.00;101986.59;7398957;19;20439;-56
2021/08/25 04:58:27;;;;;;;24.93;14.30;;;;;;;11.59;100.00;101984.72;7391469;19;20439;-57
2021/08/25 05:00:57;;;;;;;26.17;17.20;;;;;;;11.59;100.00;101976.09;7399808;19;20395;-56
2021/08/25 05:03:27;;;;;;;27.00;16.97;;;;;;;11.62;100.00;101965.91;7366394;19;20742;-54
2021/08/25 05:05:56;;;;;;;55.70;30.47;;;;;;;11.56;100.00;101973.31;7400578;19;20395;-57
2021/08/25 05:08:29;;;;;;;37.60;19.87;;;;;;;11.63;100.00;101975.44;7393710;19;20514;-54
2021/08/25 05:10:59;;;;;;;48.20;24.67;;;;;;;11.74;100.00;101969.19;7399209;19;20403;-57
2021/08/25 05:13:28;;;;;;;28.33;18.23;;;;;;;11.84;100.00;101965.44;7395981;19;20447;-55
2021/08/25 05:15:59;;;;;;;30.07;17.87;;;;;;;11.88;100.00;101961.31;7398387;19;20455;-54
2021/08/25 05:18:28;;;;;;;38.00;23.07;;;;;;;11.95;100.00;101960.84;7391376;19;20438;-56
2021/08/25 05:20:58;;;;;;;33.03;19.17;;;;;;;11.94;100.00;101964.25;7398485;19;20396;-55
2021/08/25 05:23:30;;;;;;;28.60;18.57;;;;;;;11.99;100.00;101959.31;7383812;19;20467;-56
2021/08/25 05:25:59;;;;;;;38.73;22.20;;;;;;;12.05;100.00;101956.25;7398121;19;20443;-57
2021/08/25 05:28:29;;;;;;;29.80;18.53;;;;;;;12.06;100.00;101961.50;7377051;19;20888;-56
2021/08/25 05:30:58;;;;;;;38.27;22.30;;;;;;;12.16;100.00;101973.25;7397891;19;20451;-54
2021/08/25 05:33:28;;;;;;;30.60;18.90;;;;;;;12.15;100.00;101966.25;7392106;19;20492;-55
2021/08/25 05:35:57;;;;;;;34.50;20.60;;;;;;;12.11;100.00;101969.50;7399610;19;20474;-56
2021/08/25 05:38:29;;;;;;;34.50;16.87;;;;;;;12.10;100.00;101963.44;7370208;19;20419;-52
2021/08/25 05:40:59;;;;;;;67.40;33.23;;;;;;;12.18;100.00;101970.72;7397686;19;20459;-57
2021/08/25 05:43:28;;;;;;;27.33;17.03;;;;;;;12.27;100.00;101966.94;7381629;19;20479;-52
2021/08/25 05:45:58;;;;;;;29.07;18.13;;;;;;;12.35;100.00;101969.94;7399415;19;20391;-55
2021/08/25 05:48:27;;;;;;;55.03;26.40;;;;;;;12.39;100.00;101965.81;7377604;19;20909;-54
2021/08/25 05:50:57;;;;;;;45.07;24.90;;;;;;;12.36;100.00;101955.31;7397283;19;20388;-55
2021/08/25 05:53:27;;;;;;;41.57;23.40;;;;;;;12.52;100.00;101963.06;7391034;19;20432;-55
2021/08/25 05:55:59;;;;;;;31.40;18.60;;;;;;;12.54;100.00;101956.28;7397253;19;20394;-56
2021/08/25 05:58:28;;;;;;;34.93;19.27;;;;;;;12.63;100.00;101962.75;7369352;19;20514;-56
2021/08/25 06:00:58;;;;;;;46.73;24.90;;;;;;;12.69;100.00;101951.03;7404992;19;20400;-54
2021/08/25 06:03:27;;;;;;;36.03;21.70;;;;;;;12.74;100.00;101961.63;7398398;19;20448;-52
2021/08/25 06:05:57;;;;;;;54.80;28.00;;;;;;;12.89;100.00;101961.53;7404609;19;20674;-56
2021/08/25 06:08:28;;;;;;;35.03;20.53;;;;;;;13.00;100.00;101962.06;7398133;19;20425;-56
2021/08/25 06:11:00;;;;;;;30.90;20.27;;;;;;;13.02;100.00;101955.25;7404464;19;20386;-57
2021/08/25 06:13:29;;;;;;;34.33;18.50;;;;;;;13.08;100.00;101949.53;7401785;19;20454;-56
2021/08/25 06:15:59;;;;;;;30.60;19.20;;;;;;;13.17;100.00;101944.78;7404259;19;20469;-56
2021/08/25 06:18:28;;;;;;;48.97;25.00;;;;;;;13.26;100.00;101946.03;7397128;19;20459;-56
2021/08/25 06:20:58;;;;;;;31.27;19.13;;;;;;;13.41;100.00;101946.81;7405140;19;20413;-54
2021/08/25 06:23:28;;;;;;;32.23;18.63;;;;;;;13.51;100.00;101935.22;7397878;19;20426;-53
2021/08/25 06:26:00;;;;;;;33.83;18.83;;;;;;;13.62;100.00;101939.22;7403796;19;20464;-57
2021/08/25 06:28:30;;;;;;;32.40;18.00;;;;;;;13.67;100.00;101930.75;7396899;19;20551;-55
2021/08/25 06:30:59;;;;;;;25.73;16.90;;;;;;;13.83;100.00;101928.09;7405314;19;20398;-57
2021/08/25 06:33:29;;;;;;;27.10;16.47;;;;;;;13.89;100.00;101923.19;7397406;19;20432;-53
2021/08/25 06:35:58;;;;;;;27.90;16.03;;;;;;;13.98;100.00;101912.34;7403311;19;20467;-55
2021/08/25 06:38:28;;;;;;;28.37;16.20;;;;;;;14.09;100.00;101909.38;7376833;19;20518;-54
2021/08/25 06:41:00;;;;;;;30.13;15.37;;;;;;;14.26;100.00;101904.94;7403552;19;20726;-55
2021/08/25 06:43:29;;;;;;;26.73;14.30;;;;;;;14.32;100.00;101902.63;7367201;19;20474;-57
2021/08/25 06:45:59;;;;;;;25.20;14.47;;;;;;;14.40;100.00;101901.25;7403137;19;20853;-56
2021/08/25 06:48:28;;;;;;;24.73;13.30;;;;;;;14.41;100.00;101892.63;7396871;19;20435;-56
2021/08/25 06:50:58;;;;;;;21.27;12.93;;;;;;;14.52;100.00;101884.44;7403300;19;20451;-56
2021/08/25 06:53:29;;;;;;;16.33;11.70;;;;;;;14.60;100.00;101877.84;7396578;19;20411;-53
2021/08/25 06:56:02;;;;;;;42.30;21.03;;;;;;;14.75;100.00;101874.16;7402817;19;20714;-55
2021/08/25 06:58:31;;;;;;;39.97;23.63;;;;;;;14.85;100.00;101861.66;7396623;19;20419;-53
2021/08/25 07:01:00;;;;;;;95.13;32.37;;;;;;;14.84;100.00;101859.88;7402722;19;20380;-56
2021/08/25 07:03:30;;;;;;;24.80;14.10;;;;;;;14.87;100.00;101855.63;7396597;19;20499;-57
2021/08/25 07:06:00;;;;;;;40.30;18.30;;;;;;;14.98;100.00;101844.84;7402352;19;20444;-55
2021/08/25 07:08:30;;;;;;;12.47;8.97;;;;;;;15.10;100.00;101833.16;7395115;19;20905;-55
2021/08/25 07:11:02;;;;;;;15.47;8.27;;;;;;;15.14;100.00;101835.06;7404757;19;20391;-56
2021/08/25 07:13:31;;;;;;;22.23;12.20;;;;;;;15.12;100.00;101831.50;7399995;19;20458;-57
2021/08/25 07:16:01;;;;;;;8.17;6.37;;;;;;;15.15;100.00;101821.25;7405599;19;20425;-55
2021/08/25 07:18:30;;;;;;;18.47;9.13;;;;;;;15.09;100.00;101818.41;7396442;19;20451;-54
2021/08/25 07:21:00;;;;;;;45.73;18.97;;;;;;;15.32;100.00;101811.50;7403471;19;20456;-54
2021/08/25 07:23:29;;;;;;;18.33;8.83;;;;;;;15.46;100.00;101806.84;7399426;19;20453;-54
2021/08/25 07:26:01;;;;;;;8.60;5.97;;;;;;;15.53;100.00;101788.03;7405433;19;20396;-52
2021/08/25 07:28:31;;;;;;;13.13;6.27;;;;;;;15.64;100.00;101782.38;7399184;19;20449;-55
2021/08/25 07:31:00;;;;;;;15.20;6.80;;;;;;;15.68;100.00;101768.63;7403319;19;20406;-57
2021/08/25 07:33:30;;;;;;;12.10;6.87;;;;;;;15.57;100.00;101762.13;7396134;19;20480;-53
2021/08/25 07:36:00;;;;;;;11.50;6.83;;;;;;;15.68;100.00;101760.81;7402846;19;20396;-55
2021/08/25 07:38:29;;;;;;;10.50;5.03;;;;;;;15.76;100.00;101761.09;7393222;19;20423;-54
2021/08/25 07:41:01;;;;;;;12.70;6.17;;;;;;;15.84;100.00;101751.84;7398490;19;20392;-51
2021/08/25 07:43:31;;;;;;;11.30;4.40;;;;;;;15.93;100.00;101744.44;7393117;19;20423;-55
2021/08/25 07:46:00;;;;;;;6.40;3.77;;;;;;;15.98;100.00;101744.59;7397471;19;20718;-54
2021/08/25 07:48:30;;;;;;;4.00;2.57;;;;;;;16.08;100.00;101731.88;7392831;19;20475;-57
2021/08/25 07:51:00;;;;;;;14.33;6.20;;;;;;;16.19;100.00;101725.31;7399465;19;20395;-58
2021/08/25 07:53:29;;;;;;;5.27;2.23;;;;;;;16.19;100.00;101727.94;7393173;19;20429;-56
2021/08/25 07:56:01;;;;;;;3.30;1.93;;;;;;;16.20;100.00;101714.06;7399897;19;20384;-52
2021/08/25 07:58:31;;;;;;;8.23;3.23;;;;;;;16.43;100.00;101703.53;7392101;19;20481;-56
2021/08/25 08:01:12;;;;;;;4.80;2.87;;;;;;;16.49;100.00;101701.13;7397761;19;20419;-57
2021/08/25 08:03:43;;;;;;;5.90;2.27;;;;;;;16.47;100.00;101698.47;7371546;19;20431;-56
2021/08/25 08:06:12;;;;;;;6.80;2.53;;;;;;;16.49;100.00;101689.81;7399419;19;20400;-56
2021/08/25 08:08:42;;;;;;;4.43;1.97;;;;;;;16.55;100.00;101688.31;7393089;19;21075;-57
2021/08/25 08:11:14;;;;;;;2.90;2.00;;;;;;;16.46;100.00;101686.28;7399893;19;20518;-53
2021/08/25 08:13:43;;;;;;;3.80;2.43;;;;;;;16.49;100.00;101682.00;7392958;19;20432;-57
2021/08/25 08:16:17;;;;;;;3.10;1.97;;;;;;;16.53;100.00;101681.28;7397687;19;20380;-55
2021/08/25 08:18:56;;;;;;;6.30;2.50;;;;;;;16.53;100.00;101674.38;7371794;19;20845;-55
2021/08/25 08:21:26;;;;;;;4.53;1.97;;;;;;;16.68;100.00;101668.75;7390222;19;20427;-59
2021/08/25 08:23:56;;;;;;;4.03;1.80;;;;;;;16.78;100.00;101661.22;7399597;19;20396;-57
2021/08/25 08:26:29;;;;;;;7.40;1.60;;;;;;;16.78;100.00;101664.72;7392705;19;20724;-60
2021/08/25 08:28:58;;;;;;;4.47;1.40;;;;;;;16.79;100.00;101663.88;7399443;19;20391;-57
2021/08/25 08:31:29;;;;;;;7.33;1.53;;;;;;;16.85;100.00;101664.06;7391681;19;20475;-57
2021/08/25 08:33:58;;;;;;;5.20;1.30;;;;;;;16.85;100.00;101658.84;7398193;19;20452;-57
2021/08/25 08:36:29;;;;;;;3.30;1.23;;;;;;;16.94;100.00;101671.28;7391189;19;20400;-59
2021/08/25 08:38:58;;;;;;;5.70;1.50;;;;;;;16.90;100.00;101655.47;7403768;19;20400;-58
2021/08/25 08:41:30;;;;;;;2.80;1.40;;;;;;;17.00;100.00;101662.75;7390848;19;20694;-57
2021/08/25 08:44:00;;;;;;;5.53;2.07;;;;;;;17.02;100.00;101655.88;7399244;19;20398;-57
2021/08/25 08:46:30;;;;;;;7.03;1.40;;;;;;;17.09;100.00;101664.75;7392951;19;20404;-57
2021/08/25 08:48:59;;;;;;;2.57;1.10;;;;;;;16.98;100.00;101656.59;7398947;19;20392;-55
2021/08/25 08:51:29;;;;;;;5.83;1.20;;;;;;;17.08;100.00;101661.25;7391471;19;20426;-57
2021/08/25 08:53:58;;;;;;;2.33;1.00;;;;;;;17.11;100.00;101639.63;7396667;19;20384;-56
2021/08/25 08:56:33;;;;;;;3.03;0.87;;;;;;;17.29;100.00;101631.44;7373723;19;20452;-54
2021/08/25 08:59:03;;;;;;;3.27;1.20;;;;;;;17.27;100.00;101620.06;7397973;19;20391;-57
2021/08/25 09:01:33;;;;;;;2.13;0.73;;;;;;;17.14;100.00;101609.28;7390294;19;20426;-55
2021/08/25 09:04:03;;;;;;;2.33;0.90;;;;;;;17.06;100.00;101616.03;7398293;19;20384;-56
2021/08/25 09:06:46;;;;;;;1.90;1.00;;;;;;;16.94;100.00;101628.66;7392060;19;20388;-56
2021/08/25 09:09:15;;;;;;;3.30;1.30;;;;;;;16.90;100.00;101630.31;7398253;19;20394;-55
2021/08/25 09:11:55;;;;;;;2.90;0.97;;;;;;;16.94;100.00;101626.97;7392007;19;20649;-56
2021/08/25 09:14:27;;;;;;;5.13;1.20;;;;;;;16.92;100.00;101627.75;7398176;19;20459;-57
2021/08/25 09:17:03;;;;;;;2.90;1.20;;;;;;;16.97;100.00;101634.00;7392051;19;20750;-58
2021/08/25 09:19:37;;;;;;;4.43;1.23;;;;;;;17.13;100.00;101627.53;7398951;19;20396;-57
2021/08/25 09:22:21;;;;;;;4.57;1.10;;;;;;;17.16;100.00;101631.94;7390681;19;20414;-58
2021/08/25 09:24:50;;;;;;;7.30;1.50;;;;;;;17.23;100.00;101623.47;7399090;19;20376;-57
2021/08/25 09:27:23;;;;;;;6.47;1.37;;;;;;;17.12;100.00;101620.53;7391278;19;20421;-55
2021/08/25 09:29:57;;;;;;;2.87;1.20;;;;;;;17.10;100.00;101617.00;7397810;19;20402;-58
2021/08/25 09:32:28;;;;;;;4.17;1.10;;;;;;;16.99;100.00;101616.66;7394196;19;20493;-54
2021/08/25 09:34:58;;;;;;;5.77;1.63;;;;;;;17.10;100.00;101603.97;7406158;19;20461;-58
2021/08/25 09:37:29;;;;;;;7.40;1.27;;;;;;;16.98;100.00;101612.28;7398902;19;21248;-54
2021/08/25 09:40:00;;;;;;;2.90;1.60;;;;;;;16.80;100.00;101613.50;7406185;19;20720;-57
2021/08/25 09:42:47;;;;;;;5.00;1.10;;;;;;;16.67;100.00;101603.56;7398529;19;20422;-55
2021/08/25 09:45:19;;;;;;;5.00;1.20;;;;;;;16.59;100.00;101599.03;7405640;19;20386;-56
2021/08/25 09:47:50;;;;;;;10.57;1.57;;;;;;;16.59;100.00;101593.81;7398985;19;20684;-56
2021/08/25 09:50:22;;;;;;;3.33;1.27;;;;;;;16.74;100.00;101574.25;7404282;19;20459;-55
2021/08/25 09:52:52;;;;;;;7.13;1.47;;;;;;;16.99;100.00;101568.00;7398355;19;20496;-57
2021/08/25 09:55:32;;;;;;;4.37;1.23;;;;;;;17.19;100.00;101556.41;7405131;19;20382;-56
2021/08/25 09:58:04;;;;;;;5.93;1.47;;;;;;;17.12;100.00;101544.91;7399005;19;20484;-56
2021/08/25 10:00:36;;;;;;;3.50;0.87;;;;;;;17.25;100.00;101540.94;7405340;19;20894;-56
2021/08/25 10:03:06;;;;;;;4.80;1.13;;;;;;;17.12;100.00;101538.00;7397858;19;20439;-56
2021/08/25 10:05:35;;;;;;;3.77;1.00;;;;;;;17.03;100.00;101537.75;7404441;19;20722;-57
2021/08/25 10:08:06;;;;;;;3.23;0.90;;;;;;;17.23;100.00;101540.00;7396909;19;20498;-55
2021/08/25 10:10:36;;;;;;;2.47;0.87;;;;;;;17.33;100.00;101531.56;7405138;19;20453;-54
2021/08/25 10:13:08;;;;;;;5.17;1.67;;;;;;;17.35;100.00;101529.00;7397277;19;20632;-57
2021/08/25 10:15:47;;;;;;;4.70;1.40;;;;;;;17.29;100.00;101514.09;7404104;19;20383;-56
2021/08/25 10:18:26;;;;;;;2.83;1.03;;;;;;;17.21;100.00;101513.00;7382617;19;20443;-56
2021/08/25 10:20:56;;;;;;;2.50;0.93;;;;;;;17.11;100.00;101491.91;7403910;19;20397;-54
2021/08/25 10:23:56;;;;;;;3.10;1.10;;;;;;;17.16;100.00;101501.59;7398113;19;20490;-57
2021/08/25 10:26:26;;;;;;;3.07;1.00;;;;;;;17.23;100.00;101493.94;7396792;19;20379;-59
2021/08/25 10:29:10;;;;;;;3.37;1.10;;;;;;;17.21;100.00;101479.09;7404223;19;20383;-57
2021/08/25 10:32:10;;;;;;;3.10;1.23;;;;;;;17.11;100.00;101489.31;7398042;19;20475;-58
2021/08/25 10:34:42;;;;;;;11.90;3.87;;;;;;;16.99;100.00;101486.34;7404315;19;20380;-58
2021/08/25 10:37:28;;;;;;;3.30;0.93;;;;;;;16.93;100.00;101476.66;7396467;19;20483;-58
2021/08/25 10:40:03;;;;;;;3.97;1.10;;;;;;;16.93;100.00;101486.16;7404171;19;20393;-55
2021/08/25 10:42:55;;;;;;;3.83;1.03;;;;;;;16.88;100.00;101492.13;7400492;19;20478;-54
2021/08/25 10:46:00;;;;;;;2.47;0.90;;;;;;;16.87;100.00;101492.97;7401408;19;20847;-57
2021/08/25 10:48:46;;;;;;;3.03;1.30;;;;;;;16.90;100.00;101501.72;7397221;19;20423;-57
2021/08/25 10:51:30;;;;;;;3.00;1.73;;;;;;;16.86;100.00;101501.63;7403143;19;20404;-57
2021/08/25 10:54:00;;;;;;;3.60;1.27;;;;;;;16.75;100.00;101495.25;7402362;19;20484;-58
2021/08/25 10:56:31;;;;;;;3.70;1.60;;;;;;;16.71;100.00;101472.53;7396439;19;20394;-55
2021/08/25 10:59:05;;;;;;;7.63;1.50;;;;;;;16.62;100.00;101467.97;7403072;19;20742;-56
2021/08/25 11:01:39;;;;;;;2.97;1.03;;;;;;;16.77;100.00;101459.69;7395074;19;20438;-58
2021/08/25 11:04:13;;;;;;;4.97;2.37;;;;;;;16.73;100.00;101453.50;7402682;19;20386;-57
2021/08/25 11:06:49;;;;;;;3.67;1.67;;;;;;;16.58;100.00;101446.19;7380045;19;20413;-55
2021/08/25 11:09:23;;;;;;;5.20;1.00;;;;;;;16.56;100.00;101447.84;7402771;19;20842;-56
2021/08/25 11:11:56;;;;;;;5.63;2.03;;;;;;;16.52;100.00;101439.91;7395464;19;20863;-57
2021/08/25 11:14:28;;;;;;;2.83;1.37;;;;;;;16.53;100.00;101434.75;7402847;19;20727;-57
2021/08/25 11:17:05;;;;;;;2.50;0.90;;;;;;;16.47;100.00;101432.81;7395088;19;20452;-56
2021/08/25 11:19:36;;;;;;;2.93;1.00;;;;;;;16.43;100.00;101425.78;7400988;19;20447;-57
2021/08/25 11:22:06;;;;;;;2.43;1.00;;;;;;;16.48;100.00;101423.31;7395289;19;20419;-56
2021/08/25 11:24:41;;;;;;;2.30;1.07;;;;;;;16.36;100.00;101423.81;7402598;19;20391;-56
2021/08/25 11:27:35;;;;;;;5.80;2.30;;;;;;;16.34;100.00;101412.50;7394979;19;20470;-55